sensor_id;sensor_type;location;lat;lon;timestamp;temperature;humidity
29849;DHT22;16728;50.832;5.590;2022-11-15T00:02:48;10.90;99.90
29849;DHT22;16728;50.832;5.590;2022-11-15T00:05:50;10.90;99.90
29849;DHT22;16728;50.832;5.590;2022-11-15T00:08:52;10.90;99.90
29849;DHT22;16728;50.832;5.590;2022-11-15T00:11:54;10.80;99.90
29849;DHT22;16728;50.832;5.590;2022-11-15T00:14:56;10.90;99.90
29849;DHT22;16728;50.832;5.590;2022-11-15T00:17:58;10.80;99.90
29849;DHT22;16728;50.832;5.590;2022-11-15T00:21:05;10.90;99.90
29849;DHT22;16728;50.832;5.590;2022-11-15T00:24:08;10.90;99.90
29849;DHT22;16728;50.832;5.590;2022-11-15T00:27:11;10.90;99.90
29849;DHT22;16728;50.832;5.590;2022-11-15T00:30:13;11.00;99.90
29849;DHT22;16728;50.832;5.590;2022-11-15T00:33:15;11.00;99.90
29849;DHT22;16728;50.832;5.590;2022-11-15T00:36:16;11.00;99.90
29849;DHT22;16728;50.832;5.590;2022-11-15T00:39:18;11.00;99.90
29849;DHT22;16728;50.832;5.590;2022-11-15T00:42:20;11.00;99.90
29849;DHT22;16728;50.832;5.590;2022-11-15T00:45:22;11.00;99.90
29849;DHT22;16728;50.832;5.590;2022-11-15T00:48:24;11.00;99.90
29849;DHT22;16728;50.832;5.590;2022-11-15T00:51:26;11.00;99.90
29849;DHT22;16728;50.832;5.590;2022-11-15T00:54:28;11.00;99.90
29849;DHT22;16728;50.832;5.590;2022-11-15T00:57:30;11.00;99.90
29849;DHT22;16728;50.832;5.590;2022-11-15T01:00:32;11.00;99.90
29849;DHT22;16728;50.832;5.590;2022-11-15T01:03:35;11.00;99.90
29849;DHT22;16728;50.832;5.590;2022-11-15T01:06:37;11.00;99.90
29849;DHT22;16728;50.832;5.590;2022-11-15T01:09:39;11.00;99.90
29849;DHT22;16728;50.832;5.590;2022-11-15T01:12:40;11.00;99.90
29849;DHT22;16728;50.832;5.590;2022-11-15T01:15:42;11.00;99.90
29849;DHT22;16728;50.832;5.590;2022-11-15T01:18:45;11.00;99.90
29849;DHT22;16728;50.832;5.590;2022-11-15T01:21:50;10.90;99.90
29849;DHT22;16728;50.832;5.590;2022-11-15T01:24:52;10.90;99.90
29849;DHT22;16728;50.832;5.590;2022-11-15T01:27:54;10.90;99.90
29849;DHT22;16728;50.832;5.590;2022-11-15T01:31:04;10.90;99.90
29849;DHT22;16728;50.832;5.590;2022-11-15T01:34:06;11.00;99.90
29849;DHT22;16728;50.832;5.590;2022-11-15T01:37:08;10.90;99.90
29849;DHT22;16728;50.832;5.590;2022-11-15T01:40:11;10.90;99.90
29849;DHT22;16728;50.832;5.590;2022-11-15T01:43:39;10.90;99.90
29849;DHT22;16728;50.832;5.590;2022-11-15T01:46:46;10.90;99.90
29849;DHT22;16728;50.832;5.590;2022-11-15T01:50:02;10.90;99.90
29849;DHT22;16728;50.832;5.590;2022-11-15T01:53:05;11.00;99.90
29849;DHT22;16728;50.832;5.590;2022-11-15T01:56:15;11.00;99.90
29849;DHT22;16728;50.832;5.590;2022-11-15T01:59:19;11.10;99.90
29849;DHT22;16728;50.832;5.590;2022-11-15T02:02:21;11.10;99.90
29849;DHT22;16728;50.832;5.590;2022-11-15T02:05:23;11.20;99.90
29849;DHT22;16728;50.832;5.590;2022-11-15T02:08:25;11.20;99.90
29849;DHT22;16728;50.832;5.590;2022-11-15T02:11:28;11.30;99.90
29849;DHT22;16728;50.832;5.590;2022-11-15T02:14:30;11.30;99.90
29849;DHT22;16728;50.832;5.590;2022-11-15T02:21:00;11.40;99.90
29849;DHT22;16728;50.832;5.590;2022-11-15T02:24:11;11.50;99.90
29849;DHT22;16728;50.832;5.590;2022-11-15T02:30:45;11.50;99.90
29849;DHT22;16728;50.832;5.590;2022-11-15T02:37:21;11.50;99.90
29849;DHT22;16728;50.832;5.590;2022-11-15T02:40:45;11.50;99.90
29849;DHT22;16728;50.832;5.590;2022-11-15T02:44:01;11.50;99.90
29849;DHT22;16728;50.832;5.590;2022-11-15T02:47:07;11.40;99.90
29849;DHT22;16728;50.832;5.590;2022-11-15T02:50:19;11.40;99.90
29849;DHT22;16728;50.832;5.590;2022-11-15T02:53:25;11.40;99.90
29849;DHT22;16728;50.832;5.590;2022-11-15T02:56:27;11.40;99.90
29849;DHT22;16728;50.832;5.590;2022-11-15T03:03:29;11.40;99.90
29849;DHT22;16728;50.832;5.590;2022-11-15T03:06:43;11.50;99.90
29849;DHT22;16728;50.832;5.590;2022-11-15T03:09:52;11.50;99.90
29849;DHT22;16728;50.832;5.590;2022-11-15T03:12:59;11.50;99.90
29849;DHT22;16728;50.832;5.590;2022-11-15T03:16:17;11.50;99.90
29849;DHT22;16728;50.832;5.590;2022-11-15T03:19:46;11.50;99.90
29849;DHT22;16728;50.832;5.590;2022-11-15T03:22:49;11.50;99.90
29849;DHT22;16728;50.832;5.590;2022-11-15T03:25:53;11.40;99.90
29849;DHT22;16728;50.832;5.590;2022-11-15T03:29:04;11.40;99.90
29849;DHT22;16728;50.832;5.590;2022-11-15T03:32:12;11.40;99.90
29849;DHT22;16728;50.832;5.590;2022-11-15T03:35:19;11.40;99.90
29849;DHT22;16728;50.832;5.590;2022-11-15T03:38:26;11.40;99.90
29849;DHT22;16728;50.832;5.590;2022-11-15T03:41:40;11.40;99.90
29849;DHT22;16728;50.832;5.590;2022-11-15T03:48:22;11.40;99.90
29849;DHT22;16728;50.832;5.590;2022-11-15T03:51:25;11.30;99.90
29849;DHT22;16728;50.832;5.590;2022-11-15T03:54:27;11.30;99.90
29849;DHT22;16728;50.832;5.590;2022-11-15T03:57:29;11.30;99.90
29849;DHT22;16728;50.832;5.590;2022-11-15T04:00:32;11.40;99.90
29849;DHT22;16728;50.832;5.590;2022-11-15T04:03:34;11.40;99.90
29849;DHT22;16728;50.832;5.590;2022-11-15T04:06:36;11.40;99.90
29849;DHT22;16728;50.832;5.590;2022-11-15T04:09:38;11.30;99.90
29849;DHT22;16728;50.832;5.590;2022-11-15T04:13:04;11.30;99.90
29849;DHT22;16728;50.832;5.590;2022-11-15T04:16:06;11.40;99.90
29849;DHT22;16728;50.832;5.590;2022-11-15T04:19:08;11.40;99.90
29849;DHT22;16728;50.832;5.590;2022-11-15T04:22:29;11.30;99.90
29849;DHT22;16728;50.832;5.590;2022-11-15T04:25:51;11.30;99.90
29849;DHT22;16728;50.832;5.590;2022-11-15T04:28:54;11.40;99.90
29849;DHT22;16728;50.832;5.590;2022-11-15T04:32:17;11.40;99.90
29849;DHT22;16728;50.832;5.590;2022-11-15T04:35:19;11.30;99.90
29849;DHT22;16728;50.832;5.590;2022-11-15T04:38:22;11.30;99.90
29849;DHT22;16728;50.832;5.590;2022-11-15T04:41:23;11.40;99.90
29849;DHT22;16728;50.832;5.590;2022-11-15T04:44:25;11.40;99.90
29849;DHT22;16728;50.832;5.590;2022-11-15T04:47:27;11.40;99.90
29849;DHT22;16728;50.832;5.590;2022-11-15T04:50:30;11.50;99.90
29849;DHT22;16728;50.832;5.590;2022-11-15T04:53:32;11.50;99.90
29849;DHT22;16728;50.832;5.590;2022-11-15T04:56:35;11.50;99.90
29849;DHT22;16728;50.832;5.590;2022-11-15T04:59:37;11.50;99.90
29849;DHT22;16728;50.832;5.590;2022-11-15T05:02:40;11.50;99.90
29849;DHT22;16728;50.832;5.590;2022-11-15T05:06:00;11.50;99.90
29849;DHT22;16728;50.832;5.590;2022-11-15T05:09:02;11.50;99.90
29849;DHT22;16728;50.832;5.590;2022-11-15T05:12:04;11.50;99.90
29849;DHT22;16728;50.832;5.590;2022-11-15T05:15:07;11.40;99.90
29849;DHT22;16728;50.832;5.590;2022-11-15T05:18:09;11.50;99.90
29849;DHT22;16728;50.832;5.590;2022-11-15T05:21:13;11.40;99.90
29849;DHT22;16728;50.832;5.590;2022-11-15T05:24:16;11.30;99.90
29849;DHT22;16728;50.832;5.590;2022-11-15T05:27:17;11.20;99.90
29849;DHT22;16728;50.832;5.590;2022-11-15T05:30:20;11.10;99.90
29849;DHT22;16728;50.832;5.590;2022-11-15T05:33:21;11.00;99.90
29849;DHT22;16728;50.832;5.590;2022-11-15T05:39:31;11.00;99.90
29849;DHT22;16728;50.832;5.590;2022-11-15T05:42:33;11.00;99.90
29849;DHT22;16728;50.832;5.590;2022-11-15T05:45:36;11.00;99.90
29849;DHT22;16728;50.832;5.590;2022-11-15T05:48:41;11.10;99.90
29849;DHT22;16728;50.832;5.590;2022-11-15T05:51:45;11.00;99.90
29849;DHT22;16728;50.832;5.590;2022-11-15T05:54:49;11.00;99.90
29849;DHT22;16728;50.832;5.590;2022-11-15T05:57:52;11.00;99.90
29849;DHT22;16728;50.832;5.590;2022-11-15T06:00:54;11.00;99.90
29849;DHT22;16728;50.832;5.590;2022-11-15T06:03:56;11.00;99.90
29849;DHT22;16728;50.832;5.590;2022-11-15T06:06:58;11.00;99.90
29849;DHT22;16728;50.832;5.590;2022-11-15T06:10:00;11.00;99.90
29849;DHT22;16728;50.832;5.590;2022-11-15T06:13:03;10.90;99.90
29849;DHT22;16728;50.832;5.590;2022-11-15T06:16:06;10.90;99.90
29849;DHT22;16728;50.832;5.590;2022-11-15T06:19:07;10.90;99.90
29849;DHT22;16728;50.832;5.590;2022-11-15T06:22:09;10.90;99.90
29849;DHT22;16728;50.832;5.590;2022-11-15T06:25:11;10.90;99.90
29849;DHT22;16728;50.832;5.590;2022-11-15T06:28:13;10.90;99.90
29849;DHT22;16728;50.832;5.590;2022-11-15T06:31:15;10.90;99.90
29849;DHT22;16728;50.832;5.590;2022-11-15T06:34:17;10.90;99.90
29849;DHT22;16728;50.832;5.590;2022-11-15T06:37:19;10.80;99.90
29849;DHT22;16728;50.832;5.590;2022-11-15T06:40:21;10.80;99.90
29849;DHT22;16728;50.832;5.590;2022-11-15T06:43:23;10.80;99.90
29849;DHT22;16728;50.832;5.590;2022-11-15T06:46:24;10.80;99.90
29849;DHT22;16728;50.832;5.590;2022-11-15T06:49:26;10.80;99.90
29849;DHT22;16728;50.832;5.590;2022-11-15T06:52:28;10.80;99.90
29849;DHT22;16728;50.832;5.590;2022-11-15T06:55:34;10.80;99.90
29849;DHT22;16728;50.832;5.590;2022-11-15T06:58:36;10.80;99.90
29849;DHT22;16728;50.832;5.590;2022-11-15T07:01:38;10.90;99.90
29849;DHT22;16728;50.832;5.590;2022-11-15T07:04:40;10.80;99.90
29849;DHT22;16728;50.832;5.590;2022-11-15T07:07:41;10.90;99.90
29849;DHT22;16728;50.832;5.590;2022-11-15T07:10:44;10.90;99.90
29849;DHT22;16728;50.832;5.590;2022-11-15T07:13:46;10.90;99.90
29849;DHT22;16728;50.832;5.590;2022-11-15T07:16:48;10.90;99.90
29849;DHT22;16728;50.832;5.590;2022-11-15T07:19:49;10.90;99.90
29849;DHT22;16728;50.832;5.590;2022-11-15T07:22:59;10.90;99.90
29849;DHT22;16728;50.832;5.590;2022-11-15T07:26:02;10.90;99.90
29849;DHT22;16728;50.832;5.590;2022-11-15T07:29:04;10.90;99.90
29849;DHT22;16728;50.832;5.590;2022-11-15T07:32:06;10.90;99.90
29849;DHT22;16728;50.832;5.590;2022-11-15T07:35:08;10.90;99.90
29849;DHT22;16728;50.832;5.590;2022-11-15T07:38:10;10.90;99.90
29849;DHT22;16728;50.832;5.590;2022-11-15T07:41:14;10.90;99.90
29849;DHT22;16728;50.832;5.590;2022-11-15T07:44:16;10.90;99.90
29849;DHT22;16728;50.832;5.590;2022-11-15T07:47:18;11.00;99.90
29849;DHT22;16728;50.832;5.590;2022-11-15T07:50:20;10.90;99.90
29849;DHT22;16728;50.832;5.590;2022-11-15T07:53:22;11.00;99.90
29849;DHT22;16728;50.832;5.590;2022-11-15T07:56:24;11.00;99.90
29849;DHT22;16728;50.832;5.590;2022-11-15T07:59:26;11.00;99.90
29849;DHT22;16728;50.832;5.590;2022-11-15T08:02:28;11.00;99.90
29849;DHT22;16728;50.832;5.590;2022-11-15T08:05:31;11.00;99.90
29849;DHT22;16728;50.832;5.590;2022-11-15T08:08:33;11.00;99.90
29849;DHT22;16728;50.832;5.590;2022-11-15T08:11:35;11.00;99.90
29849;DHT22;16728;50.832;5.590;2022-11-15T08:14:37;11.00;99.90
29849;DHT22;16728;50.832;5.590;2022-11-15T08:17:40;11.00;99.90
29849;DHT22;16728;50.832;5.590;2022-11-15T08:20:42;11.10;99.90
29849;DHT22;16728;50.832;5.590;2022-11-15T08:23:45;11.10;99.90
29849;DHT22;16728;50.832;5.590;2022-11-15T08:26:47;11.10;99.90
29849;DHT22;16728;50.832;5.590;2022-11-15T08:29:49;11.10;99.90
29849;DHT22;16728;50.832;5.590;2022-11-15T08:32:58;11.10;99.90
29849;DHT22;16728;50.832;5.590;2022-11-15T08:36:00;11.10;99.90
29849;DHT22;16728;50.832;5.590;2022-11-15T08:39:14;11.10;99.90
29849;DHT22;16728;50.832;5.590;2022-11-15T08:42:19;11.10;99.90
29849;DHT22;16728;50.832;5.590;2022-11-15T08:45:20;11.20;99.90
29849;DHT22;16728;50.832;5.590;2022-11-15T08:48:23;11.30;99.90
29849;DHT22;16728;50.832;5.590;2022-11-15T08:51:25;11.30;99.90
29849;DHT22;16728;50.832;5.590;2022-11-15T08:54:27;11.30;99.90
29849;DHT22;16728;50.832;5.590;2022-11-15T08:57:29;11.40;99.90
29849;DHT22;16728;50.832;5.590;2022-11-15T09:00:32;11.40;99.90
29849;DHT22;16728;50.832;5.590;2022-11-15T09:03:34;11.50;99.90
29849;DHT22;16728;50.832;5.590;2022-11-15T09:06:36;11.60;99.90
29849;DHT22;16728;50.832;5.590;2022-11-15T09:09:43;11.70;99.90
29849;DHT22;16728;50.832;5.590;2022-11-15T09:12:45;11.70;99.90
29849;DHT22;16728;50.832;5.590;2022-11-15T09:15:50;11.80;99.90
29849;DHT22;16728;50.832;5.590;2022-11-15T09:18:53;11.90;99.90
29849;DHT22;16728;50.832;5.590;2022-11-15T09:21:56;12.00;99.90
29849;DHT22;16728;50.832;5.590;2022-11-15T09:25:00;12.10;99.90
29849;DHT22;16728;50.832;5.590;2022-11-15T09:28:06;12.10;99.90
29849;DHT22;16728;50.832;5.590;2022-11-15T09:31:09;12.20;99.90
29849;DHT22;16728;50.832;5.590;2022-11-15T09:34:11;12.20;99.90
29849;DHT22;16728;50.832;5.590;2022-11-15T09:37:13;12.20;99.90
29849;DHT22;16728;50.832;5.590;2022-11-15T09:40:24;12.10;99.90
29849;DHT22;16728;50.832;5.590;2022-11-15T09:43:34;12.10;99.90
29849;DHT22;16728;50.832;5.590;2022-11-15T09:50:09;12.10;99.90
29849;DHT22;16728;50.832;5.590;2022-11-15T09:53:14;12.10;99.90
29849;DHT22;16728;50.832;5.590;2022-11-15T09:56:22;12.20;99.90
29849;DHT22;16728;50.832;5.590;2022-11-15T10:06:26;12.40;99.90
29849;DHT22;16728;50.832;5.590;2022-11-15T10:12:53;12.60;99.90
29849;DHT22;16728;50.832;5.590;2022-11-15T10:19:32;12.80;99.90
29849;DHT22;16728;50.832;5.590;2022-11-15T10:25:37;12.90;99.90
29849;DHT22;16728;50.832;5.590;2022-11-15T10:28:40;13.00;99.90
29849;DHT22;16728;50.832;5.590;2022-11-15T10:31:43;13.00;99.90
29849;DHT22;16728;50.832;5.590;2022-11-15T10:34:46;13.10;99.90
29849;DHT22;16728;50.832;5.590;2022-11-15T10:37:48;13.10;99.90
29849;DHT22;16728;50.832;5.590;2022-11-15T10:41:06;13.10;99.90
29849;DHT22;16728;50.832;5.590;2022-11-15T10:44:18;13.10;99.90
29849;DHT22;16728;50.832;5.590;2022-11-15T10:47:26;13.10;99.90
29849;DHT22;16728;50.832;5.590;2022-11-15T10:50:31;13.10;99.90
29849;DHT22;16728;50.832;5.590;2022-11-15T10:53:41;13.20;99.90
29849;DHT22;16728;50.832;5.590;2022-11-15T10:56:50;13.30;99.90
29849;DHT22;16728;50.832;5.590;2022-11-15T10:59:58;13.30;99.90
29849;DHT22;16728;50.832;5.590;2022-11-15T11:03:29;13.30;99.90
29849;DHT22;16728;50.832;5.590;2022-11-15T11:06:57;13.20;99.90
29849;DHT22;16728;50.832;5.590;2022-11-15T11:10:19;13.10;99.90
29849;DHT22;16728;50.832;5.590;2022-11-15T11:13:41;13.10;99.90
29849;DHT22;16728;50.832;5.590;2022-11-15T11:17:09;13.10;99.90
29849;DHT22;16728;50.832;5.590;2022-11-15T11:23:54;13.00;99.90
29849;DHT22;16728;50.832;5.590;2022-11-15T11:37:28;13.00;99.90
29849;DHT22;16728;50.832;5.590;2022-11-15T11:40:42;13.00;99.90
29849;DHT22;16728;50.832;5.590;2022-11-15T11:47:00;13.10;99.90
29849;DHT22;16728;50.832;5.590;2022-11-15T11:50:14;13.10;99.90
29849;DHT22;16728;50.832;5.590;2022-11-15T11:53:29;13.10;99.90
29849;DHT22;16728;50.832;5.590;2022-11-15T11:56:34;13.10;99.90
29849;DHT22;16728;50.832;5.590;2022-11-15T11:59:42;13.20;99.90
29849;DHT22;16728;50.832;5.590;2022-11-15T12:05:59;13.20;99.90
29849;DHT22;16728;50.832;5.590;2022-11-15T12:09:13;13.10;99.90
29849;DHT22;16728;50.832;5.590;2022-11-15T12:12:27;13.10;99.90
29849;DHT22;16728;50.832;5.590;2022-11-15T12:15:56;13.10;99.90
29849;DHT22;16728;50.832;5.590;2022-11-15T12:18:56;13.20;99.90
29849;DHT22;16728;50.832;5.590;2022-11-15T12:22:06;13.20;99.90
29849;DHT22;16728;50.832;5.590;2022-11-15T12:25:18;13.20;99.90
29849;DHT22;16728;50.832;5.590;2022-11-15T12:28:40;13.10;99.90
29849;DHT22;16728;50.832;5.590;2022-11-15T12:32:05;13.20;99.90
29849;DHT22;16728;50.832;5.590;2022-11-15T12:39:10;13.30;99.90
29849;DHT22;16728;50.832;5.590;2022-11-15T12:54:57;13.40;99.90
29849;DHT22;16728;50.832;5.590;2022-11-15T12:58:24;13.40;99.90
29849;DHT22;16728;50.832;5.590;2022-11-15T13:04:35;13.40;99.90
29849;DHT22;16728;50.832;5.590;2022-11-15T13:10:42;13.40;99.90
29849;DHT22;16728;50.832;5.590;2022-11-15T13:13:45;13.50;99.90
29849;DHT22;16728;50.832;5.590;2022-11-15T13:16:47;13.50;99.90
29849;DHT22;16728;50.832;5.590;2022-11-15T13:23:15;13.60;99.90
29849;DHT22;16728;50.832;5.590;2022-11-15T13:26:17;13.60;99.90
29849;DHT22;16728;50.832;5.590;2022-11-15T13:29:19;13.60;99.90
29849;DHT22;16728;50.832;5.590;2022-11-15T13:32:22;13.60;99.90
29849;DHT22;16728;50.832;5.590;2022-11-15T13:35:27;13.60;99.90
29849;DHT22;16728;50.832;5.590;2022-11-15T13:38:37;13.70;99.90
29849;DHT22;16728;50.832;5.590;2022-11-15T13:41:50;13.70;99.90
29849;DHT22;16728;50.832;5.590;2022-11-15T13:45:02;13.80;99.90
29849;DHT22;16728;50.832;5.590;2022-11-15T13:48:04;13.70;99.90
29849;DHT22;16728;50.832;5.590;2022-11-15T13:54:58;13.70;99.90
29849;DHT22;16728;50.832;5.590;2022-11-15T13:58:03;13.70;99.90
29849;DHT22;16728;50.832;5.590;2022-11-15T14:01:15;13.70;99.90
29849;DHT22;16728;50.832;5.590;2022-11-15T14:04:20;13.70;99.90
29849;DHT22;16728;50.832;5.590;2022-11-15T14:07:26;13.70;99.90
29849;DHT22;16728;50.832;5.590;2022-11-15T14:10:34;13.80;99.90
29849;DHT22;16728;50.832;5.590;2022-11-15T14:13:37;13.70;99.90
29849;DHT22;16728;50.832;5.590;2022-11-15T14:16:42;13.70;99.90
29849;DHT22;16728;50.832;5.590;2022-11-15T14:19:44;13.70;99.90
29849;DHT22;16728;50.832;5.590;2022-11-15T14:22:57;13.70;99.90
29849;DHT22;16728;50.832;5.590;2022-11-15T14:25:59;13.70;99.90
29849;DHT22;16728;50.832;5.590;2022-11-15T14:32:28;13.60;99.90
29849;DHT22;16728;50.832;5.590;2022-11-15T14:35:30;13.60;99.90
29849;DHT22;16728;50.832;5.590;2022-11-15T14:38:33;13.70;99.90
29849;DHT22;16728;50.832;5.590;2022-11-15T14:41:35;13.60;99.90
29849;DHT22;16728;50.832;5.590;2022-11-15T14:44:41;13.60;99.90
29849;DHT22;16728;50.832;5.590;2022-11-15T14:47:47;13.60;99.90
29849;DHT22;16728;50.832;5.590;2022-11-15T14:50:49;13.60;99.90
29849;DHT22;16728;50.832;5.590;2022-11-15T14:53:51;13.60;99.90
29849;DHT22;16728;50.832;5.590;2022-11-15T14:56:52;13.60;99.90
29849;DHT22;16728;50.832;5.590;2022-11-15T14:59:54;13.70;99.90
29849;DHT22;16728;50.832;5.590;2022-11-15T15:02:56;13.60;99.90
29849;DHT22;16728;50.832;5.590;2022-11-15T15:05:58;13.60;99.90
29849;DHT22;16728;50.832;5.590;2022-11-15T15:09:00;13.60;99.90
29849;DHT22;16728;50.832;5.590;2022-11-15T15:12:02;13.60;99.90
29849;DHT22;16728;50.832;5.590;2022-11-15T15:15:13;13.60;99.90
29849;DHT22;16728;50.832;5.590;2022-11-15T15:18:17;13.60;99.90
29849;DHT22;16728;50.832;5.590;2022-11-15T15:21:21;13.60;99.90
29849;DHT22;16728;50.832;5.590;2022-11-15T15:24:23;13.60;99.90
29849;DHT22;16728;50.832;5.590;2022-11-15T15:27:25;13.50;99.90
29849;DHT22;16728;50.832;5.590;2022-11-15T15:30:29;13.50;99.90
29849;DHT22;16728;50.832;5.590;2022-11-15T15:33:33;13.40;99.90
29849;DHT22;16728;50.832;5.590;2022-11-15T15:36:36;13.40;99.90
29849;DHT22;16728;50.832;5.590;2022-11-15T15:39:38;13.30;99.90
29849;DHT22;16728;50.832;5.590;2022-11-15T15:42:40;13.30;99.90
29849;DHT22;16728;50.832;5.590;2022-11-15T15:45:42;13.30;99.90
29849;DHT22;16728;50.832;5.590;2022-11-15T15:48:46;13.30;99.90
29849;DHT22;16728;50.832;5.590;2022-11-15T15:51:48;13.40;99.90
29849;DHT22;16728;50.832;5.590;2022-11-15T15:54:50;13.30;99.90
29849;DHT22;16728;50.832;5.590;2022-11-15T15:57:52;13.20;99.90
29849;DHT22;16728;50.832;5.590;2022-11-15T16:00:54;13.20;99.90
29849;DHT22;16728;50.832;5.590;2022-11-15T16:03:56;13.20;99.90
29849;DHT22;16728;50.832;5.590;2022-11-15T16:06:59;13.20;99.90
29849;DHT22;16728;50.832;5.590;2022-11-15T16:10:08;13.20;99.90
29849;DHT22;16728;50.832;5.590;2022-11-15T16:13:15;13.30;99.90
29849;DHT22;16728;50.832;5.590;2022-11-15T16:16:18;13.20;99.90
29849;DHT22;16728;50.832;5.590;2022-11-15T16:19:21;13.10;99.90
29849;DHT22;16728;50.832;5.590;2022-11-15T16:22:23;13.10;99.90
29849;DHT22;16728;50.832;5.590;2022-11-15T16:25:25;13.00;99.90
29849;DHT22;16728;50.832;5.590;2022-11-15T16:28:30;13.00;99.90
29849;DHT22;16728;50.832;5.590;2022-11-15T16:31:33;13.00;99.90
29849;DHT22;16728;50.832;5.590;2022-11-15T16:34:34;13.00;99.90
29849;DHT22;16728;50.832;5.590;2022-11-15T16:37:44;13.00;99.90
29849;DHT22;16728;50.832;5.590;2022-11-15T16:40:47;13.00;99.90
29849;DHT22;16728;50.832;5.590;2022-11-15T16:43:48;12.90;99.90
29849;DHT22;16728;50.832;5.590;2022-11-15T16:46:50;12.90;99.90
29849;DHT22;16728;50.832;5.590;2022-11-15T16:49:52;12.90;99.90
29849;DHT22;16728;50.832;5.590;2022-11-15T16:52:56;12.80;99.90
29849;DHT22;16728;50.832;5.590;2022-11-15T16:55:58;12.80;99.90
29849;DHT22;16728;50.832;5.590;2022-11-15T16:59:00;12.80;99.90
29849;DHT22;16728;50.832;5.590;2022-11-15T17:02:02;12.80;99.90
29849;DHT22;16728;50.832;5.590;2022-11-15T17:05:05;12.80;99.90
29849;DHT22;16728;50.832;5.590;2022-11-15T17:08:12;12.80;99.90
29849;DHT22;16728;50.832;5.590;2022-11-15T17:11:19;12.90;99.90
29849;DHT22;16728;50.832;5.590;2022-11-15T17:14:21;12.90;99.90
29849;DHT22;16728;50.832;5.590;2022-11-15T17:17:23;12.90;99.90
29849;DHT22;16728;50.832;5.590;2022-11-15T17:23:47;12.90;99.90
29849;DHT22;16728;50.832;5.590;2022-11-15T17:26:49;12.80;99.90
29849;DHT22;16728;50.832;5.590;2022-11-15T17:29:51;12.80;99.90
29849;DHT22;16728;50.832;5.590;2022-11-15T17:32:53;12.80;99.90
29849;DHT22;16728;50.832;5.590;2022-11-15T17:35:58;12.80;99.90
29849;DHT22;16728;50.832;5.590;2022-11-15T17:39:00;12.90;99.90
29849;DHT22;16728;50.832;5.590;2022-11-15T17:42:02;13.00;99.90
29849;DHT22;16728;50.832;5.590;2022-11-15T17:45:05;13.00;99.90
29849;DHT22;16728;50.832;5.590;2022-11-15T17:48:11;13.10;99.90
29849;DHT22;16728;50.832;5.590;2022-11-15T17:51:15;13.10;99.90
29849;DHT22;16728;50.832;5.590;2022-11-15T17:54:17;13.10;99.90
29849;DHT22;16728;50.832;5.590;2022-11-15T17:57:19;13.00;99.90
29849;DHT22;16728;50.832;5.590;2022-11-15T18:00:20;13.00;99.90
29849;DHT22;16728;50.832;5.590;2022-11-15T18:03:22;13.00;99.90
29849;DHT22;16728;50.832;5.590;2022-11-15T18:06:24;13.00;99.90
29849;DHT22;16728;50.832;5.590;2022-11-15T18:09:26;13.00;99.90
29849;DHT22;16728;50.832;5.590;2022-11-15T18:12:28;13.00;99.90
29849;DHT22;16728;50.832;5.590;2022-11-15T18:15:31;12.90;99.90
29849;DHT22;16728;50.832;5.590;2022-11-15T18:18:33;13.00;99.90
29849;DHT22;16728;50.832;5.590;2022-11-15T18:21:36;13.00;99.90
29849;DHT22;16728;50.832;5.590;2022-11-15T18:24:57;13.00;99.90
29849;DHT22;16728;50.832;5.590;2022-11-15T18:27:59;12.90;99.90
29849;DHT22;16728;50.832;5.590;2022-11-15T18:31:01;13.00;99.90
29849;DHT22;16728;50.832;5.590;2022-11-15T18:34:03;13.00;99.90
29849;DHT22;16728;50.832;5.590;2022-11-15T18:37:06;12.90;99.90
29849;DHT22;16728;50.832;5.590;2022-11-15T18:40:08;13.00;99.90
29849;DHT22;16728;50.832;5.590;2022-11-15T18:43:10;13.00;99.90
29849;DHT22;16728;50.832;5.590;2022-11-15T18:46:14;13.00;99.90
29849;DHT22;16728;50.832;5.590;2022-11-15T18:49:17;13.10;99.90
29849;DHT22;16728;50.832;5.590;2022-11-15T18:52:20;13.10;99.90
29849;DHT22;16728;50.832;5.590;2022-11-15T18:55:23;13.10;99.90
29849;DHT22;16728;50.832;5.590;2022-11-15T18:58:30;13.10;99.90
29849;DHT22;16728;50.832;5.590;2022-11-15T19:01:37;13.00;99.90
29849;DHT22;16728;50.832;5.590;2022-11-15T19:04:40;13.00;99.90
29849;DHT22;16728;50.832;5.590;2022-11-15T19:07:42;13.10;99.90
29849;DHT22;16728;50.832;5.590;2022-11-15T19:10:44;13.10;99.90
29849;DHT22;16728;50.832;5.590;2022-11-15T19:13:46;13.10;99.90
29849;DHT22;16728;50.832;5.590;2022-11-15T19:16:48;13.10;99.90
29849;DHT22;16728;50.832;5.590;2022-11-15T19:19:52;13.10;99.90
29849;DHT22;16728;50.832;5.590;2022-11-15T19:22:54;13.10;99.90
29849;DHT22;16728;50.832;5.590;2022-11-15T19:25:59;13.10;99.90
29849;DHT22;16728;50.832;5.590;2022-11-15T19:29:01;13.20;99.90
29849;DHT22;16728;50.832;5.590;2022-11-15T19:32:03;13.20;99.90
29849;DHT22;16728;50.832;5.590;2022-11-15T19:35:05;13.20;99.90
29849;DHT22;16728;50.832;5.590;2022-11-15T19:38:07;13.10;99.90
29849;DHT22;16728;50.832;5.590;2022-11-15T19:41:14;13.10;99.90
29849;DHT22;16728;50.832;5.590;2022-11-15T19:44:16;13.00;99.90
29849;DHT22;16728;50.832;5.590;2022-11-15T19:47:19;13.00;99.90
29849;DHT22;16728;50.832;5.590;2022-11-15T19:50:21;13.00;99.90
29849;DHT22;16728;50.832;5.590;2022-11-15T19:53:23;12.90;99.90
29849;DHT22;16728;50.832;5.590;2022-11-15T19:56:27;12.90;99.90
29849;DHT22;16728;50.832;5.590;2022-11-15T19:59:28;12.90;99.90
29849;DHT22;16728;50.832;5.590;2022-11-15T20:02:31;13.00;99.90
29849;DHT22;16728;50.832;5.590;2022-11-15T20:05:33;13.00;99.90
29849;DHT22;16728;50.832;5.590;2022-11-15T20:08:34;13.00;99.90
29849;DHT22;16728;50.832;5.590;2022-11-15T20:11:37;13.00;99.90
29849;DHT22;16728;50.832;5.590;2022-11-15T20:14:40;13.00;99.90
29849;DHT22;16728;50.832;5.590;2022-11-15T20:17:41;13.00;99.90
29849;DHT22;16728;50.832;5.590;2022-11-15T20:20:44;13.00;99.90
29849;DHT22;16728;50.832;5.590;2022-11-15T20:23:47;13.10;99.90
29849;DHT22;16728;50.832;5.590;2022-11-15T20:26:51;13.10;99.90
29849;DHT22;16728;50.832;5.590;2022-11-15T20:29:53;13.20;99.90
29849;DHT22;16728;50.832;5.590;2022-11-15T20:32:55;13.20;99.90
29849;DHT22;16728;50.832;5.590;2022-11-15T20:35:57;13.30;99.90
29849;DHT22;16728;50.832;5.590;2022-11-15T20:39:03;13.20;99.90
29849;DHT22;16728;50.832;5.590;2022-11-15T20:42:04;13.20;99.90
29849;DHT22;16728;50.832;5.590;2022-11-15T20:45:06;13.20;99.90
29849;DHT22;16728;50.832;5.590;2022-11-15T20:48:08;13.10;99.90
29849;DHT22;16728;50.832;5.590;2022-11-15T20:51:13;13.20;99.90
29849;DHT22;16728;50.832;5.590;2022-11-15T20:54:15;13.20;99.90
29849;DHT22;16728;50.832;5.590;2022-11-15T20:57:17;13.20;99.90
29849;DHT22;16728;50.832;5.590;2022-11-15T21:00:19;13.20;99.90
29849;DHT22;16728;50.832;5.590;2022-11-15T21:03:25;13.30;99.90
29849;DHT22;16728;50.832;5.590;2022-11-15T21:06:27;13.20;99.90